Time;durP1;ratioP1;P1;durP2;ratioP2;P2;SDS_P1;SDS_P2;PMS_P1;PMS_P2;Temp;Humidity;BMP_temperature;BMP_pressure;BME280_temperature;BME280_humidity;BME280_pressure;Samples;Min_cycle;Max_cycle;Signal;HPM_P1;HPM_P2
2022/05/26 00:02:05;;;;;;;1.40;1.30;;;14.90;72.40;;;;;;5055287;28;20158;-86
2022/05/26 00:04:31;;;;;;;2.75;1.40;;;15.00;72.60;;;;;;5058238;28;20059;-89
2022/05/26 00:06:58;;;;;;;2.85;1.40;;;14.90;72.70;;;;;;5076189;28;20028;-88
2022/05/26 00:09:24;;;;;;;2.65;1.10;;;15.00;72.70;;;;;;5057430;28;20101;-86
2022/05/26 00:11:50;;;;;;;1.30;1.20;;;15.00;73.30;;;;;;5065071;28;20051;-86
2022/05/26 00:14:15;;;;;;;2.45;1.20;;;15.10;73.50;;;;;;5061938;28;20024;-88
2022/05/26 00:16:43;;;;;;;1.65;1.15;;;15.10;73.00;;;;;;5077191;28;20081;-86
2022/05/26 00:19:10;;;;;;;1.20;1.10;;;15.10;73.10;;;;;;5051780;28;20045;-87
2022/05/26 00:21:36;;;;;;;1.65;1.25;;;15.10;73.10;;;;;;5053793;28;20029;-86
2022/05/26 00:24:02;;;;;;;3.58;1.30;;;15.00;73.10;;;;;;5067641;28;20116;-88
2022/05/26 00:26:28;;;;;;;1.40;1.05;;;15.00;73.30;;;;;;5068239;28;20096;-86
2022/05/26 00:28:54;;;;;;;1.95;1.05;;;15.10;73.30;;;;;;5051793;28;20076;-86
2022/05/26 00:31:20;;;;;;;1.83;1.20;;;15.00;73.40;;;;;;5055424;28;20051;-87
2022/05/26 00:33:45;;;;;;;1.58;1.30;;;15.10;73.50;;;;;;5069286;28;20028;-86
2022/05/26 00:36:13;;;;;;;3.05;1.60;;;15.10;73.50;;;;;;5065576;28;20024;-88
2022/05/26 00:38:39;;;;;;;2.42;1.60;;;15.00;73.50;;;;;;5073133;28;20024;-86
2022/05/26 00:41:13;;;;;;;2.17;1.02;;;15.00;73.70;;;;;;5058492;28;20133;-87
2022/05/26 00:43:44;;;;;;;2.38;1.02;;;15.00;73.90;;;;;;5058146;28;20032;-86
2022/05/26 00:46:19;;;;;;;3.53;1.30;;;15.00;74.10;;;;;;5059651;28;20074;-87
2022/05/26 00:48:50;;;;;;;3.28;1.20;;;15.00;74.40;;;;;;5040446;28;20017;-86
2022/05/26 00:51:20;;;;;;;3.03;1.20;;;15.00;74.40;;;;;;5039393;28;20096;-87
2022/05/26 00:53:52;;;;;;;2.55;1.10;;;15.00;74.30;;;;;;5053229;28;20013;-86
2022/05/26 00:56:56;;;;;;;3.10;1.40;;;15.00;74.50;;;;;;5053763;28;20095;-85
2022/05/26 00:59:26;;;;;;;1.60;1.25;;;15.00;75.10;;;;;;5006852;28;20279;-87
2022/05/26 01:01:52;;;;;;;1.33;1.05;;;14.90;74.60;;;;;;5052524;28;20027;-86
2022/05/26 01:04:21;;;;;;;1.50;1.40;;;14.90;74.70;;;;;;5059785;28;20062;-87
2022/05/26 01:06:52;;;;;;;1.33;1.23;;;14.90;74.90;;;;;;5054060;28;20448;-86
2022/05/26 01:09:20;;;;;;;1.30;1.10;;;14.80;74.90;;;;;;5048401;28;20439;-88
2022/05/26 01:11:46;;;;;;;1.67;1.35;;;14.80;75.00;;;;;;5055404;28;20024;-86
2022/05/26 01:14:18;;;;;;;2.40;1.50;;;14.80;75.20;;;;;;5049607;28;20021;-88
2022/05/26 01:16:52;;;;;;;1.98;1.10;;;14.80;75.30;;;;;;5058302;28;20028;-86
2022/05/26 01:19:32;;;;;;;2.45;1.50;;;14.60;75.40;;;;;;5050185;28;20055;-86
2022/05/26 01:22:19;;;;;;;3.53;1.20;;;14.60;75.80;;;;;;5044940;28;20032;-86
2022/05/26 01:24:53;;;;;;;4.82;1.10;;;14.60;75.70;;;;;;5044355;28;20024;-86
2022/05/26 01:27:27;;;;;;;2.42;1.20;;;14.50;75.80;;;;;;5051224;28;20088;-86
2022/05/26 01:30:09;;;;;;;1.35;1.20;;;14.50;75.80;;;;;;5059052;28;20024;-87
2022/05/26 01:32:53;;;;;;;1.10;1.00;;;14.50;76.10;;;;;;5084010;28;20025;-87
2022/05/26 01:35:34;;;;;;;0.98;0.90;;;14.40;76.10;;;;;;5056723;28;20281;-86
2022/05/26 01:38:21;;;;;;;1.63;1.02;;;14.40;76.30;;;;;;5063466;28;20045;-86
2022/05/26 01:40:58;;;;;;;1.52;1.15;;;14.40;76.40;;;;;;5055938;28;20462;-87
2022/05/26 01:43:32;;;;;;;1.38;0.90;;;14.40;76.40;;;;;;5063218;28;20131;-87
2022/05/26 01:46:13;;;;;;;1.98;0.95;;;14.40;76.80;;;;;;5050303;28;20016;-86
2022/05/26 01:49:00;;;;;;;2.42;0.80;;;14.40;76.90;;;;;;5063340;28;20024;-86
2022/05/26 01:51:39;;;;;;;0.95;0.68;;;14.40;77.00;;;;;;5059099;28;20497;-86
2022/05/26 01:54:18;;;;;;;0.82;0.70;;;14.40;77.10;;;;;;5045672;28;20051;-85
2022/05/26 01:57:01;;;;;;;1.15;0.95;;;14.40;77.20;;;;;;5056068;28;20146;-86
2022/05/26 01:59:33;;;;;;;1.13;0.77;;;14.40;77.30;;;;;;5060320;28;20021;-87
2022/05/26 02:02:22;;;;;;;2.35;0.80;;;14.40;77.30;;;;;;5056151;28;20087;-85
2022/05/26 02:04:56;;;;;;;1.02;0.95;;;14.40;77.40;;;;;;5065317;28;20056;-87
2022/05/26 02:07:36;;;;;;;1.40;0.80;;;14.30;77.70;;;;;;5058836;28;20025;-86
2022/05/26 02:10:08;;;;;;;3.80;0.82;;;14.30;77.90;;;;;;5062060;28;20020;-85
2022/05/26 02:12:39;;;;;;;1.38;0.70;;;14.30;78.00;;;;;;5063089;28;20024;-87
2022/05/26 02:15:15;;;;;;;2.15;0.82;;;14.30;78.10;;;;;;5066058;28;20504;-87
2022/05/26 02:17:46;;;;;;;2.65;0.93;;;14.30;78.30;;;;;;5077104;28;20028;-86
2022/05/26 02:20:34;;;;;;;1.00;0.80;;;14.30;78.50;;;;;;5061410;28;20021;-87
2022/05/26 02:23:18;;;;;;;0.85;0.70;;;14.30;78.70;;;;;;5055025;28;20028;-86
2022/05/26 02:25:44;;;;;;;0.60;0.60;;;14.30;79.20;;;;;;5063233;28;20111;-86
2022/05/26 02:28:11;;;;;;;2.42;0.73;;;14.30;79.30;;;;;;5053445;28;20529;-86
2022/05/26 02:30:39;;;;;;;0.80;0.63;;;14.20;78.90;;;;;;5070470;28;20029;-87
2022/05/26 02:33:08;;;;;;;4.20;0.77;;;14.20;79.00;;;;;;5059416;28;20027;-86
2022/05/26 02:35:43;;;;;;;0.95;0.70;;;14.20;79.30;;;;;;5092655;28;20028;-87
2022/05/26 02:38:13;;;;;;;1.10;1.00;;;14.10;79.40;;;;;;5051526;28;20064;-86
2022/05/26 02:40:40;;;;;;;3.25;0.85;;;14.20;79.60;;;;;;5060601;28;20092;-86
2022/05/26 02:43:16;;;;;;;0.65;0.60;;;14.10;79.70;;;;;;5062838;28;20032;-88
2022/05/26 02:46:15;;;;;;;2.38;0.90;;;14.10;80.00;;;;;;5063967;28;20035;-88
2022/05/26 02:48:53;;;;;;;0.88;0.60;;;14.10;80.10;;;;;;5061424;28;20017;-87
2022/05/26 02:51:37;;;;;;;2.33;0.70;;;14.10;80.10;;;;;;5054727;28;20036;-87
2022/05/26 02:54:17;;;;;;;1.63;0.75;;;14.10;80.30;;;;;;5063761;28;20032;-86
2022/05/26 02:57:14;;;;;;;1.02;0.80;;;14.10;80.30;;;;;;5048907;28;20024;-87
2022/05/26 02:59:50;;;;;;;0.77;0.57;;;14.10;80.50;;;;;;5057992;28;20028;-88
2022/05/26 03:02:38;;;;;;;3.08;0.80;;;14.20;80.60;;;;;;5078394;28;20381;-86
2022/05/26 03:05:20;;;;;;;0.65;0.65;;;14.20;80.70;;;;;;5031277;28;20037;-87
2022/05/26 03:07:53;;;;;;;0.77;0.70;;;14.20;80.90;;;;;;5052984;28;20328;-86
2022/05/26 03:10:24;;;;;;;2.72;0.70;;;14.20;80.80;;;;;;5063601;28;20089;-86
2022/05/26 03:12:52;;;;;;;5.77;0.77;;;14.20;81.00;;;;;;5063157;28;20044;-87
2022/05/26 03:15:18;;;;;;;1.40;0.52;;;14.10;81.00;;;;;;5066417;28;20028;-87
2022/05/26 03:17:43;;;;;;;1.35;1.00;;;14.10;81.20;;;;;;5060331;28;20405;-86
2022/05/26 03:20:09;;;;;;;2.10;0.95;;;14.10;81.40;;;;;;5058657;28;20028;-87
2022/05/26 03:22:35;;;;;;;2.17;0.88;;;14.00;81.50;;;;;;5060576;28;20060;-87
2022/05/26 03:25:01;;;;;;;1.15;0.82;;;14.00;81.60;;;;;;5056690;28;20037;-86
2022/05/26 03:27:26;;;;;;;1.00;0.82;;;14.00;81.80;;;;;;5061926;28;20029;-86
2022/05/26 03:29:53;;;;;;;1.30;0.98;;;13.90;82.00;;;;;;5045801;28;20021;-87
2022/05/26 03:32:19;;;;;;;1.98;0.80;;;13.90;82.10;;;;;;5062889;28;20032;-85
2022/05/26 03:42:57;;;;;;;3.70;0.90;;;13.90;82.80;;;;;;5075516;28;20036;-86
2022/05/26 03:45:24;;;;;;;0.80;0.75;;;13.80;82.90;;;;;;5050678;28;20095;-86
2022/05/26 03:47:50;;;;;;;3.42;0.98;;;13.80;83.00;;;;;;5069082;28;20050;-86
2022/05/26 03:50:16;;;;;;;1.38;0.90;;;13.80;83.30;;;;;;5073960;28;20017;-86
2022/05/26 03:52:42;;;;;;;3.75;0.93;;;13.80;83.50;;;;;;5057084;28;20027;-88
2022/05/26 03:55:08;;;;;;;0.88;0.75;;;13.80;83.70;;;;;;5058969;28;20025;-86
2022/05/26 03:57:34;;;;;;;5.55;0.90;;;13.80;84.00;;;;;;5083496;28;20021;-88
2022/05/26 03:59:59;;;;;;;1.67;0.93;;;13.80;84.30;;;;;;5054263;28;20549;-86
2022/05/26 04:02:26;;;;;;;1.00;0.90;;;13.80;84.50;;;;;;5062183;28;20075;-86
2022/05/26 04:04:52;;;;;;;3.13;1.10;;;13.90;84.70;;;;;;5053423;28;20029;-86
2022/05/26 04:07:18;;;;;;;2.08;1.00;;;13.90;84.80;;;;;;5058444;28;20035;-86
2022/05/26 04:09:43;;;;;;;0.95;0.80;;;13.80;84.90;;;;;;5056720;28;20028;-86
2022/05/26 04:12:11;;;;;;;1.15;0.63;;;13.80;85.00;;;;;;5052010;28;20032;-86
2022/05/26 04:14:37;;;;;;;0.82;0.80;;;13.80;85.30;;;;;;5062938;28;20394;-86
2022/05/26 04:17:03;;;;;;;1.23;0.77;;;13.80;85.60;;;;;;5053205;28;20032;-86
2022/05/26 04:19:29;;;;;;;1.00;0.80;;;13.80;85.70;;;;;;5049153;28;20029;-86
2022/05/26 04:24:39;;;;;;;0.68;0.63;;;13.80;86.60;;;;;;5080754;28;20519;-85
2022/05/26 04:27:05;;;;;;;1.20;0.80;;;13.80;86.10;;;;;;5066268;28;20036;-85
2022/05/26 04:29:32;;;;;;;0.77;0.77;;;13.80;86.30;;;;;;5049006;28;20451;-86
2022/05/26 04:31:57;;;;;;;1.63;1.10;;;13.70;86.50;;;;;;5064429;28;20028;-88
2022/05/26 04:34:23;;;;;;;2.17;0.98;;;13.70;86.50;;;;;;5054969;28;20025;-88
2022/05/26 04:36:48;;;;;;;3.20;1.10;;;13.80;86.70;;;;;;5054506;28;20029;-86
2022/05/26 04:39:16;;;;;;;1.08;0.90;;;13.80;86.70;;;;;;5060819;28;20393;-87
2022/05/26 04:41:48;;;;;;;0.88;0.68;;;13.90;86.80;;;;;;5068511;22;20083;-87
2022/05/26 04:48:37;;;;;;;1.73;0.70;;;14.00;86.70;;;;;;5034981;28;20076;-87
2022/05/26 04:52:17;;;;;;;1.38;0.75;;;14.20;86.50;;;;;;4996456;28;20565;-86
2022/05/26 04:55:40;;;;;;;1.48;0.70;;;14.20;86.40;;;;;;5022154;28;20045;-87
2022/05/26 08:56:48;;;;;;;0.60;0.60;;;18.20;81.30;;;;;;5077071;22;20052;-89
2022/05/26 08:59:17;;;;;;;0.35;0.30;;;18.30;81.00;;;;;;5041230;28;20181;-90
2022/05/26 09:01:43;;;;;;;1.52;0.47;;;18.40;81.10;;;;;;5043708;28;20017;-90
2022/05/26 09:04:10;;;;;;;3.67;0.50;;;18.50;81.00;;;;;;5049346;28;20116;-89
2022/05/26 09:12:55;;;;;;;0.68;0.40;;;18.80;80.90;;;;;;5016124;28;20056;-90
2022/05/26 09:15:05;;;;;;;1.58;0.52;;;19.50;78.60;;;;;;5040290;28;20033;-89
2022/05/26 09:17:30;;;;;;;1.50;0.50;;;19.70;78.00;;;;;;5042951;28;20029;-89
2022/05/26 09:19:58;;;;;;;2.25;0.65;;;19.80;77.70;;;;;;5028742;28;20032;-88
2022/05/26 09:22:27;;;;;;;0.40;0.40;;;19.70;76.90;;;;;;5029912;28;20021;-89
2022/05/26 09:24:53;;;;;;;1.20;0.30;;;19.60;76.70;;;;;;5030951;28;20130;-88
2022/05/26 09:27:36;;;;;;;5.15;0.82;;;19.40;77.00;;;;;;5020648;28;20065;-88
2022/05/26 09:30:30;;;;;;;2.50;0.70;;;19.30;77.30;;;;;;5027957;28;20032;-90
2022/05/26 09:32:57;;;;;;;4.40;2.63;;;19.20;77.60;;;;;;5035324;28;20017;-88
2022/05/26 09:35:31;;;;;;;1.83;0.47;;;19.20;77.30;;;;;;5030622;28;21944;-89
2022/05/26 09:38:03;;;;;;;2.17;0.60;;;19.20;76.90;;;;;;5040927;28;20085;-89
2022/05/26 09:40:35;;;;;;;1.20;0.47;;;19.30;76.20;;;;;;5032965;28;20078;-89
2022/05/26 09:43:17;;;;;;;1.17;0.50;;;19.30;76.20;;;;;;5020775;28;20025;-89
2022/05/26 09:45:45;;;;;;;8.27;1.20;;;19.30;75.90;;;;;;5013247;28;20030;-89
2022/05/26 09:48:26;;;;;;;1.30;0.40;;;19.40;76.20;;;;;;5031276;28;20497;-89
2022/05/26 09:51:02;;;;;;;2.58;0.50;;;19.40;76.00;;;;;;5047517;28;20017;-90
2022/05/26 09:53:31;;;;;;;3.65;0.60;;;19.40;75.80;;;;;;5022100;28;20025;-89
2022/05/26 09:55:57;;;;;;;2.35;0.75;;;19.30;75.70;;;;;;5032614;28;20024;-89
2022/05/26 09:58:34;;;;;;;2.00;0.68;;;19.30;75.70;;;;;;5048467;28;20112;-89
2022/05/26 10:01:02;;;;;;;1.67;0.40;;;19.30;75.50;;;;;;5032417;28;20112;-89
2022/05/26 10:03:41;;;;;;;0.65;0.50;;;19.30;75.70;;;;;;5050609;28;20096;-88
2022/05/26 10:06:38;;;;;;;3.10;0.70;;;19.40;75.60;;;;;;5050819;28;20035;-89
2022/05/26 10:09:29;;;;;;;1.33;0.50;;;19.50;75.30;;;;;;5050764;28;20068;-89
2022/05/26 10:12:15;;;;;;;3.60;0.73;;;19.60;74.50;;;;;;5044283;28;20515;-89
2022/05/26 10:15:02;;;;;;;2.10;0.80;;;19.40;74.30;;;;;;5047020;28;20404;-89
2022/05/26 10:17:50;;;;;;;2.00;0.70;;;19.30;75.20;;;;;;5048581;28;20025;-88
2022/05/26 10:20:35;;;;;;;2.20;0.60;;;19.30;74.80;;;;;;5046344;28;20033;-89
2022/05/26 10:23:07;;;;;;;3.33;0.63;;;19.10;74.80;;;;;;5043536;28;20031;-89
2022/05/26 10:26:08;;;;;;;2.55;0.65;;;19.10;74.80;;;;;;5048092;28;20032;-88
2022/05/26 10:28:54;;;;;;;1.55;0.70;;;19.10;75.00;;;;;;4978467;28;20119;-88
2022/05/26 10:31:25;;;;;;;5.32;1.00;;;19.30;75.20;;;;;;5041157;28;20116;-88
2022/05/26 10:34:06;;;;;;;1.38;0.52;;;19.30;74.50;;;;;;5031021;28;20036;-88
2022/05/26 10:37:10;;;;;;;1.60;0.50;;;19.60;74.00;;;;;;5047352;28;20390;-89
2022/05/26 10:39:53;;;;;;;1.02;0.70;;;21.00;72.30;;;;;;5013787;28;20033;-88
2022/05/26 10:45:18;;;;;;;1.98;0.47;;;22.50;68.20;;;;;;5036292;28;20073;-86
2022/05/26 10:48:00;;;;;;;2.40;0.73;;;22.70;67.80;;;;;;5000680;28;20097;-86
2022/05/26 10:50:26;;;;;;;;;;;22.90;67.30;;;;;;5019620;28;20020;-86
2022/05/26 10:53:15;;;;;;;1.38;0.52;;;22.40;68.50;;;;;;5022177;28;20282;-86
2022/05/26 10:56:19;;;;;;;1.02;0.45;;;21.80;68.80;;;;;;4987065;28;20029;-86
2022/05/26 10:58:50;;;;;;;1.35;0.30;;;21.20;69.00;;;;;;5003066;28;20034;-86
2022/05/26 11:01:29;;;;;;;1.75;0.57;;;20.80;69.50;;;;;;5017179;28;20026;-85
2022/05/26 11:04:04;;;;;;;1.27;0.75;;;20.50;70.00;;;;;;5009772;28;20014;-85
2022/05/26 11:06:35;;;;;;;1.63;0.43;;;20.20;70.30;;;;;;5011876;28;20030;-86
2022/05/26 11:09:24;;;;;;;1.90;0.60;;;20.10;71.00;;;;;;5019030;28;20045;-86
2022/05/26 11:11:53;;;;;;;1.05;0.40;;;20.00;71.10;;;;;;5010986;28;20072;-85
2022/05/26 11:17:22;;;;;;;2.28;0.57;;;20.20;71.10;;;;;;5016880;28;20044;-86
2022/05/26 11:20:12;;;;;;;3.15;0.80;;;20.20;70.90;;;;;;5013017;28;20030;-87
2022/05/26 11:22:41;;;;;;;1.55;0.40;;;20.20;70.90;;;;;;5013689;28;20024;-85
2022/05/26 11:25:07;;;;;;;0.57;0.50;;;20.10;71.10;;;;;;5021865;28;20057;-85
2022/05/26 11:27:52;;;;;;;0.98;0.50;;;20.00;71.30;;;;;;5022515;28;20163;-86
2022/05/26 11:36:49;;;;;;;0.90;0.55;;;19.80;72.00;;;;;;5028589;28;20092;-87
2022/05/26 11:39:33;;;;;;;5.57;2.42;;;19.80;71.90;;;;;;5011903;28;20064;-89
2022/05/26 11:42:04;;;;;;;1.13;0.75;;;19.70;71.80;;;;;;5018161;28;20028;-87
2022/05/26 11:44:42;;;;;;;2.63;1.00;;;19.50;72.00;;;;;;5032894;28;20068;-86
2022/05/26 11:47:26;;;;;;;4.30;0.70;;;19.40;72.60;;;;;;5038167;28;20025;-87
2022/05/26 11:49:52;;;;;;;1.70;0.75;;;19.30;72.80;;;;;;5031340;28;20449;-87
2022/05/26 11:52:27;;;;;;;2.55;0.63;;;19.30;73.10;;;;;;5033609;28;20063;-86
2022/05/26 11:54:52;;;;;;;0.60;0.50;;;19.20;72.90;;;;;;5053174;28;20029;-87
2022/05/26 11:57:43;;;;;;;0.88;0.55;;;19.20;73.10;;;;;;5046447;28;20084;-87
2022/05/26 12:00:14;;;;;;;3.33;0.80;;;19.20;73.20;;;;;;5036328;28;20091;-86
2022/05/26 12:02:41;;;;;;;1.23;0.63;;;19.10;73.40;;;;;;5036617;28;20025;-86
2022/05/26 12:05:28;;;;;;;1.63;0.60;;;19.00;73.50;;;;;;5035000;28;20082;-87
2022/05/26 12:08:03;;;;;;;2.65;1.30;;;18.90;74.20;;;;;;5072128;28;20103;-86
2022/05/26 12:10:38;;;;;;;1.42;0.60;;;18.90;74.30;;;;;;5075169;28;20099;-86
2022/05/26 12:13:34;;;;;;;1.80;0.60;;;18.90;74.40;;;;;;5057501;28;20027;-86
2022/05/26 12:16:17;;;;;;;2.28;0.70;;;18.80;74.50;;;;;;5054067;28;20032;-87
2022/05/26 12:18:54;;;;;;;3.92;0.77;;;18.80;74.70;;;;;;5057891;28;20021;-87
2022/05/26 12:21:32;;;;;;;0.50;0.50;;;18.80;75.00;;;;;;5051521;28;20040;-87
2022/05/26 12:24:18;;;;;;;3.97;0.75;;;18.80;75.20;;;;;;5042243;28;20051;-87
2022/05/26 12:26:52;;;;;;;5.07;0.90;;;18.90;75.10;;;;;;5037812;28;20401;-89
2022/05/26 12:29:44;;;;;;;5.03;0.65;;;18.90;75.20;;;;;;5037290;28;20028;-89
2022/05/26 12:32:32;;;;;;;2.40;0.73;;;18.90;75.10;;;;;;5037297;28;20021;-88
2022/05/26 12:35:26;;;;;;;1.52;0.70;;;19.00;75.20;;;;;;5067955;28;20021;-87
2022/05/26 12:38:23;;;;;;;2.40;0.57;;;19.00;74.90;;;;;;5038022;28;20099;-88
2022/05/26 12:41:29;;;;;;;0.70;0.65;;;19.10;74.80;;;;;;5051151;28;20082;-88
2022/05/26 12:44:13;;;;;;;1.75;0.57;;;19.10;74.60;;;;;;5022006;28;20033;-87
2022/05/26 12:47:07;;;;;;;0.98;0.60;;;19.10;75.10;;;;;;5056328;28;20062;-89
2022/05/26 12:50:06;;;;;;;0.98;0.60;;;19.20;75.10;;;;;;5047500;28;20052;-88
2022/05/26 12:53:03;;;;;;;2.75;0.60;;;19.20;75.10;;;;;;5054313;28;20389;-88
2022/05/26 12:55:29;;;;;;;1.77;0.55;;;19.30;75.10;;;;;;5055070;28;20025;-87
2022/05/26 12:58:09;;;;;;;0.90;0.60;;;19.40;75.10;;;;;;5056345;28;20024;-88
2022/05/26 13:00:53;;;;;;;0.88;0.30;;;19.50;74.60;;;;;;5048071;28;20052;-87
2022/05/26 13:03:19;;;;;;;2.17;1.10;;;19.50;74.60;;;;;;5052965;28;20036;-88
2022/05/26 13:05:51;;;;;;;2.72;0.65;;;19.50;74.40;;;;;;5045328;28;20032;-88
2022/05/26 13:08:21;;;;;;;2.33;0.98;;;19.60;74.60;;;;;;5052035;28;20040;-88
2022/05/26 13:10:50;;;;;;;1.42;0.60;;;19.60;74.30;;;;;;5050070;28;20017;-88
2022/05/26 13:13:24;;;;;;;2.83;0.47;;;19.70;74.20;;;;;;5046505;28;20402;-87
2022/05/26 13:15:50;;;;;;;0.70;0.70;;;19.70;74.30;;;;;;5038143;28;20039;-88
2022/05/26 13:18:27;;;;;;;1.58;0.88;;;19.80;74.30;;;;;;5053541;28;20084;-88
2022/05/26 13:20:52;;;;;;;2.55;0.50;;;19.90;74.00;;;;;;5043839;28;20505;-88
2022/05/26 13:23:30;;;;;;;3.05;0.60;;;19.80;73.80;;;;;;5059319;28;20116;-89
2022/05/26 13:25:58;;;;;;;1.67;0.57;;;19.80;73.70;;;;;;5067119;28;20025;-88
2022/05/26 13:28:28;;;;;;;0.65;0.50;;;19.70;73.80;;;;;;5062139;28;20398;-89
2022/05/26 13:33:48;;;;;;;1.38;0.60;;;19.70;74.00;;;;;;5077486;28;20031;-86
2022/05/26 13:36:31;;;;;;;2.38;0.55;;;19.80;73.70;;;;;;5053277;28;20028;-87
2022/05/26 13:39:03;;;;;;;;;;;19.80;73.60;;;;;;5051769;28;20405;-87
2022/05/26 13:41:29;;;;;;;4.25;0.63;;;19.80;73.80;;;;;;5056049;28;20381;-87
2022/05/26 13:43:56;;;;;;;1.13;0.40;;;19.80;73.80;;;;;;5054856;28;20123;-87
2022/05/26 13:46:46;;;;;;;1.20;0.40;;;19.70;73.60;;;;;;5055829;28;20278;-87
2022/05/26 13:49:39;;;;;;;5.55;1.17;;;19.60;73.80;;;;;;5045291;28;20025;-87
2022/05/26 13:52:24;;;;;;;0.93;0.50;;;19.50;73.80;;;;;;5061688;28;20070;-88
2022/05/26 13:55:03;;;;;;;2.17;0.52;;;19.50;74.30;;;;;;5048601;28;20021;-88
2022/05/26 13:57:38;;;;;;;1.10;0.52;;;19.60;74.00;;;;;;5049737;28;20056;-88
2022/05/26 14:00:25;;;;;;;0.90;0.60;;;19.50;73.50;;;;;;5049700;28;20044;-88
2022/05/26 14:02:56;;;;;;;1.05;0.43;;;19.40;74.00;;;;;;5047006;28;20605;-89
2022/05/26 14:05:27;;;;;;;1.08;0.50;;;19.40;74.10;;;;;;5047100;28;20037;-90
2022/05/26 14:07:59;;;;;;;1.75;0.57;;;19.30;74.40;;;;;;5052976;28;20022;-91
2022/05/26 14:10:37;;;;;;;2.60;0.80;;;19.30;74.50;;;;;;5056459;28;20641;-90
2022/05/26 14:13:22;;;;;;;1.52;0.70;;;19.20;74.40;;;;;;5051726;28;20363;-87
2022/05/26 14:15:55;;;;;;;0.88;0.60;;;19.10;74.30;;;;;;5048885;28;20035;-86
2022/05/26 14:18:23;;;;;;;2.60;0.70;;;19.10;74.70;;;;;;5051124;28;20036;-86
2022/05/26 14:21:05;;;;;;;3.03;0.68;;;19.00;74.30;;;;;;5050664;28;20032;-87
2022/05/26 14:23:33;;;;;;;1.50;0.70;;;19.00;74.40;;;;;;5051719;28;20504;-86
2022/05/26 14:26:06;;;;;;;1.30;0.57;;;18.90;74.40;;;;;;5059337;28;20398;-87
2022/05/26 14:28:39;;;;;;;1.08;0.60;;;19.00;74.80;;;;;;5055703;28;20048;-87
2022/05/26 14:31:27;;;;;;;1.92;0.45;;;19.10;75.00;;;;;;5061157;28;20371;-86
2022/05/26 14:33:56;;;;;;;1.83;0.90;;;19.20;75.40;;;;;;5067701;28;20024;-86
2022/05/26 14:36:22;;;;;;;2.50;0.45;;;19.30;75.30;;;;;;5053915;28;20025;-85
2022/05/26 14:38:47;;;;;;;1.95;0.70;;;19.40;75.20;;;;;;5050626;28;20086;-87
2022/05/26 14:41:13;;;;;;;2.08;0.60;;;19.60;74.80;;;;;;5059813;28;20025;-87
2022/05/26 14:43:38;;;;;;;0.50;0.40;;;19.60;74.90;;;;;;5051583;28;20032;-86
2022/05/26 14:46:04;;;;;;;0.60;0.60;;;19.70;74.50;;;;;;5054668;28;20035;-85
2022/05/26 14:48:30;;;;;;;1.90;0.70;;;19.70;74.00;;;;;;5056449;28;20032;-85
2022/05/26 14:50:56;;;;;;;1.35;0.70;;;19.70;73.80;;;;;;5042807;28;20036;-86
2022/05/26 14:56:16;;;;;;;1.10;0.50;;;19.60;74.20;;;;;;5059280;28;20067;-88
2022/05/26 14:58:42;;;;;;;2.53;0.60;;;19.60;73.80;;;;;;5047158;28;20518;-87
2022/05/26 15:01:08;;;;;;;1.23;0.65;;;19.40;74.00;;;;;;5057134;28;20052;-85
2022/05/26 15:03:38;;;;;;;1.67;0.50;;;19.30;73.80;;;;;;5060385;28;21639;-87
2022/05/26 15:06:04;;;;;;;1.95;0.55;;;19.30;73.80;;;;;;5056563;28;20027;-88
2022/05/26 15:08:41;;;;;;;1.80;0.60;;;19.30;73.90;;;;;;5062447;28;20024;-89
2022/05/26 15:11:12;;;;;;;0.80;0.60;;;19.30;74.10;;;;;;5052533;28;20492;-88
2022/05/26 15:13:38;;;;;;;1.87;0.60;;;19.40;74.40;;;;;;5052140;28;20025;-89
2022/05/26 15:16:06;;;;;;;0.50;0.50;;;19.40;74.40;;;;;;5056509;28;20082;-88
2022/05/26 15:18:32;;;;;;;1.67;0.70;;;19.50;74.50;;;;;;5060466;28;20036;-89
2022/05/26 15:20:58;;;;;;;0.40;0.40;;;19.50;74.60;;;;;;5051712;28;20031;-90
2022/05/26 15:23:24;;;;;;;2.67;0.73;;;19.50;75.30;;;;;;5051296;28;20045;-89
2022/05/26 15:26:11;;;;;;;0.95;0.68;;;19.50;74.70;;;;;;5050837;28;20023;-89
2022/05/26 15:28:53;;;;;;;0.77;0.50;;;19.50;74.80;;;;;;5044651;28;20134;-90
2022/05/26 15:31:20;;;;;;;2.25;0.70;;;19.50;74.60;;;;;;5048924;28;20104;-89
2022/05/26 15:33:46;;;;;;;1.00;0.47;;;19.50;74.60;;;;;;5057176;28;20017;-88
2022/05/26 15:36:14;;;;;;;2.05;0.77;;;19.60;74.70;;;;;;5052479;28;20031;-88
2022/05/26 15:38:43;;;;;;;1.85;0.70;;;19.70;74.80;;;;;;5058713;28;20107;-88
2022/05/26 15:41:09;;;;;;;1.55;0.90;;;19.70;74.90;;;;;;5055920;28;20078;-88
2022/05/26 15:43:41;;;;;;;2.40;1.55;;;19.80;75.00;;;;;;5059978;28;20060;-88
2022/05/26 15:46:14;;;;;;;2.05;0.93;;;19.80;74.10;;;;;;5058050;28;20106;-88
2022/05/26 15:48:42;;;;;;;1.27;0.50;;;19.80;74.20;;;;;;5058703;28;20031;-88
2022/05/26 15:51:08;;;;;;;1.13;0.65;;;19.70;74.20;;;;;;5049314;28;20036;-88
2022/05/26 15:53:34;;;;;;;2.47;0.60;;;19.80;74.20;;;;;;5072793;28;20068;-88
2022/05/26 15:56:04;;;;;;;0.90;0.90;;;19.80;74.30;;;;;;5056623;28;20021;-87
2022/05/26 15:58:30;;;;;;;0.65;0.65;;;19.80;74.30;;;;;;5052424;28;20075;-88
2022/05/26 16:00:58;;;;;;;1.67;0.60;;;19.90;74.30;;;;;;5067276;28;21317;-88
2022/05/26 16:03:25;;;;;;;0.65;0.50;;;19.90;73.80;;;;;;5070151;28;20028;-91
2022/05/26 16:05:54;;;;;;;0.68;0.65;;;19.80;73.70;;;;;;5055943;28;20486;-89
2022/05/26 16:08:37;;;;;;;3.03;0.90;;;19.80;73.80;;;;;;5054536;28;20033;-88
2022/05/26 16:11:06;;;;;;;0.70;0.70;;;19.70;73.70;;;;;;5056866;28;20016;-88
2022/05/26 16:13:31;;;;;;;1.60;0.73;;;19.80;73.70;;;;;;5055507;28;20029;-88
2022/05/26 16:15:57;;;;;;;0.80;0.70;;;19.80;73.90;;;;;;5055396;28;20013;-89
2022/05/26 16:18:23;;;;;;;1.45;0.70;;;19.70;73.50;;;;;;5038685;28;20051;-88
2022/05/26 16:20:49;;;;;;;2.85;0.80;;;19.70;73.20;;;;;;5044685;28;20398;-89
2022/05/26 16:23:18;;;;;;;1.55;0.70;;;19.70;73.60;;;;;;5058068;28;20032;-89
2022/05/26 16:25:53;;;;;;;2.55;0.82;;;19.70;73.90;;;;;;5055435;28;20024;-88
2022/05/26 16:28:19;;;;;;;1.48;0.90;;;19.80;74.20;;;;;;5054010;28;20052;-87
2022/05/26 16:30:47;;;;;;;0.70;0.70;;;19.80;73.90;;;;;;5041488;28;20088;-89
2022/05/26 16:33:14;;;;;;;2.47;0.60;;;19.80;73.90;;;;;;5038816;28;20031;-89
2022/05/26 16:38:27;;;;;;;2.00;0.73;;;19.70;73.80;;;;;;5076284;28;20485;-88
2022/05/26 16:40:53;;;;;;;1.00;0.65;;;19.60;73.50;;;;;;5055841;28;20655;-88
2022/05/26 16:56:12;;;;;;;3.45;0.90;;;19.60;74.40;;;;;;5062189;28;20496;-87
2022/05/26 16:58:39;;;;;;;3.35;1.30;;;19.60;74.40;;;;;;5045333;28;20787;-89
2022/05/26 17:01:06;;;;;;;2.38;1.23;;;19.60;74.30;;;;;;5048882;28;20070;-90
2022/05/26 17:03:31;;;;;;;1.27;1.00;;;19.60;74.00;;;;;;5053038;28;20476;-89
2022/05/26 17:05:58;;;;;;;2.78;0.80;;;19.60;73.90;;;;;;5048348;28;20047;-90
2022/05/26 17:08:24;;;;;;;1.77;0.90;;;19.60;74.30;;;;;;5041602;28;20029;-89
2022/05/26 17:10:52;;;;;;;3.97;0.70;;;19.60;74.30;;;;;;5052840;28;20392;-89
2022/05/26 17:21:43;;;;;;;1.08;0.70;;;19.60;74.50;;;;;;5067778;28;20059;-89
2022/05/26 17:24:14;;;;;;;2.47;0.70;;;19.60;74.30;;;;;;5058402;28;20040;-90
2022/05/26 17:26:40;;;;;;;1.92;0.60;;;19.60;74.70;;;;;;5072790;28;20096;-88
2022/05/26 17:29:07;;;;;;;3.05;0.90;;;19.50;74.80;;;;;;5079586;28;20058;-89
2022/05/26 17:31:34;;;;;;;1.75;0.70;;;19.50;74.50;;;;;;5071551;28;20012;-87
2022/05/26 17:34:00;;;;;;;1.58;0.63;;;19.50;74.40;;;;;;5066479;28;20397;-88
2022/05/26 17:36:26;;;;;;;2.05;0.95;;;19.40;74.20;;;;;;5052237;28;20074;-90
2022/05/26 17:38:52;;;;;;;1.98;0.60;;;19.40;74.10;;;;;;5037635;28;20088;-90
2022/05/26 17:41:38;;;;;;;0.85;0.57;;;19.40;74.10;;;;;;5047690;28;20032;-90
2022/05/26 17:44:07;;;;;;;1.50;0.63;;;19.30;74.20;;;;;;5057511;28;20025;-90
2022/05/26 17:46:37;;;;;;;0.90;0.50;;;19.40;74.50;;;;;;5055015;28;20139;-91
2022/05/26 17:49:05;;;;;;;1.58;0.75;;;19.30;74.30;;;;;;5057735;28;20077;-89
2022/05/26 17:51:31;;;;;;;1.42;0.70;;;19.40;74.40;;;;;;5051412;28;20056;-89
2022/05/26 17:53:56;;;;;;;2.97;0.90;;;19.30;74.40;;;;;;5045310;28;20051;-89
2022/05/26 17:56:22;;;;;;;1.13;0.65;;;19.30;74.20;;;;;;5048210;28;20394;-91
2022/05/26 17:58:48;;;;;;;2.55;0.65;;;19.20;74.00;;;;;;5047884;28;20074;-89
2022/05/26 18:01:22;;;;;;;0.98;0.73;;;19.20;74.10;;;;;;5047972;28;20524;-91
2022/05/26 18:03:48;;;;;;;2.83;1.13;;;19.10;74.30;;;;;;5050702;28;20033;-89
2022/05/26 18:06:13;;;;;;;4.32;0.80;;;19.10;74.50;;;;;;5048313;28;20035;-88
2022/05/26 18:08:42;;;;;;;0.82;0.63;;;19.10;74.50;;;;;;5043039;28;20135;-88
2022/05/26 18:11:09;;;;;;;1.15;0.93;;;19.10;74.60;;;;;;5056931;28;20040;-87
2022/05/26 18:13:35;;;;;;;2.40;1.10;;;19.00;74.60;;;;;;5054398;28;20116;-89
2022/05/26 18:16:05;;;;;;;3.33;0.80;;;19.00;74.70;;;;;;5053419;28;20024;-89
2022/05/26 18:18:39;;;;;;;1.98;0.63;;;19.00;74.80;;;;;;5057187;28;20535;-88
2022/05/26 18:21:04;;;;;;;2.40;0.68;;;19.00;74.90;;;;;;5066798;28;20542;-88
2022/05/26 18:23:31;;;;;;;1.13;0.70;;;18.90;74.70;;;;;;5044280;28;20025;-87